EmailTwitter


Observations de surface / Québec / CYUL (71627)

Régions: Québec | Canada | États-Unis | Europe | France | UK | Ailleurs
Station
Affichage
Infos & localisation pour CYUL (71627) | Aide pour décoder les METARs

Observations prises le 2021-02-26 à 22H00 UTC à MONTREAL INTL A, QB (CYUL)

Etat du ciel: partiellement nuageux.

Température: -3.0 Celsius

Point de rosée: -11.0 Celsius

Humidité relative: 54%

Facteur vent: -7.

Vents: Sud-est à 9 km/h ou 5 noeuds.

Pression au niveau moyen de la mer: 103.11 kilopascals.

Calage altimétrique: 103.08 kilopascals ou 30.44 pouces de mercure.

Visibilité horizontale: 30.00 milles terrestres ou 48.00 kilomètres.

Hauteur du plafond: 7620 mètres ( 25000 pieds ).

Observation METAR:

CYUL 262200Z 13005KT 30SM BKN250 M03/M11 A3044 RMK CI5 SLP311=